»·PEaware :: N6262K KAJO-KAVX

N6262K :: KAJO-KAVX

FLIGHT INFORMATION

Flight Status: Arrived
Operator: Privately registered:
United States
More flights under this callsign
Pilot: Judson K. (15650)
Aircraft: Unknown
(P28U)
More flights by this aircraft type
Origin: KAJO Corona Mun
United States
Destination: KAVX Catalina
United States
More flights between these airports :: More routes between these airports
Route: +PDZ V16 PRADO V363 DANAH SXC065 SXC
File this flight plan on PilotEdge
Remarks:
Altitude:
(Current/Filed)
6,000ft
Speed:
(Current/Filed)
140kts
Departed: 26-Dec-17 12:51 PM
Arrived: 26-Dec-17 01:40 PM
Distance/Time
Traveled:
50nm/0:49
Distance/Time
To Go:
Arrived

Flight Plot

Page will automatically refresh every two minutes.


Map Options




Map Legend


Flown Route
Filed Route
Departure Airport
Arrival Airport
Navaid (VOR, NDB)
Fix

Horizontal Profiles

Position Reports

Time Latitude Longitude Heading Altitude Ground
Speed
26-Dec-17 12:40 33.896955 -117.601724 180 536ft 0kts
26-Dec-17 12:41 33.896955 -117.601724 180 536ft 0kts
26-Dec-17 12:42 33.896955 -117.601724 180 536ft 0kts
26-Dec-17 12:43 33.896955 -117.601724 180 536ft 0kts
26-Dec-17 12:44 33.896955 -117.601724 180 536ft 0kts
26-Dec-17 12:45 33.896955 -117.601724 180 536ft 0kts
26-Dec-17 12:46 33.896955 -117.601724 180 536ft 0kts
26-Dec-17 12:47 33.896955 -117.601724 180 536ft 0kts
26-Dec-17 12:48 33.896955 -117.601724 180 536ft 0kts
26-Dec-17 12:49 33.896923 -117.601856 299 536ft 1kts
26-Dec-17 12:50 33.896926 -117.601862 299 536ft 0kts
26-Dec-17 12:51 33.897185 -117.605217 269 536ft 18kts
26-Dec-17 12:52 33.897212 -117.607588 21 536ft 0kts
26-Dec-17 12:53 33.897212 -117.607587 21 536ft 0kts
26-Dec-17 12:54 33.897212 -117.607588 21 536ft 0kts
26-Dec-17 12:55 33.897212 -117.607588 21 536ft 0kts
26-Dec-17 12:56 33.897271 -117.607560 20 536ft 3kts
26-Dec-17 12:57 33.897704 -117.602091 88 585ft 78kts
26-Dec-17 12:58 33.902505 -117.574463 78 2079ft 90kts
26-Dec-17 12:59 33.913189 -117.547058 62 3699ft 93kts
26-Dec-17 13:00 33.937567 -117.525769 350 3987ft 149kts
26-Dec-17 13:01 33.974389 -117.533598 348 4814ft 127kts
26-Dec-17 13:02 33.997920 -117.551966 275 5592ft 116kts
26-Dec-17 13:03 34.001846 -117.593044 274 6013ft 141kts
26-Dec-17 13:04 34.006094 -117.640916 274 6036ft 144kts
26-Dec-17 13:05 34.009814 -117.688971 274 6036ft 143kts
26-Dec-17 13:06 34.012473 -117.736824 274 6036ft 144kts
26-Dec-17 13:07 34.015137 -117.785372 274 6021ft 146kts
26-Dec-17 13:08 33.990196 -117.805262 153 5983ft 148kts
26-Dec-17 13:09 33.951778 -117.787996 164 5982ft 149kts
26-Dec-17 13:10 33.911250 -117.779929 172 5982ft 146kts
26-Dec-17 13:11 33.870844 -117.776128 175 5982ft 145kts
26-Dec-17 13:12 33.830994 -117.774992 179 5995ft 143kts
26-Dec-17 13:13 33.795726 -117.774440 178 6643ft 126kts
26-Dec-17 13:14 33.759566 -117.773820 179 6980ft 138kts
26-Dec-17 13:15 33.726244 -117.758729 155 6976ft 146kts
26-Dec-17 13:16 33.688202 -117.739507 157 6976ft 147kts
26-Dec-17 13:17 33.649078 -117.726232 173 6975ft 147kts
26-Dec-17 13:18 33.608407 -117.720104 172 6976ft 147kts
26-Dec-17 13:19 33.567333 -117.713217 172 6976ft 151kts
26-Dec-17 13:20 33.525825 -117.705931 172 6976ft 151kts
26-Dec-17 13:21 33.489818 -117.718685 237 6975ft 147kts
26-Dec-17 13:22 33.472726 -117.763101 252 6976ft 147kts
26-Dec-17 13:23 33.462065 -117.810218 258 6976ft 146kts
26-Dec-17 13:24 33.454031 -117.857989 260 6976ft 146kts
26-Dec-17 13:25 33.447216 -117.905374 261 6852ft 144kts
26-Dec-17 13:26 33.440673 -117.953045 262 6068ft 145kts
26-Dec-17 13:27 33.434286 -118.000690 262 5208ft 145kts
26-Dec-17 13:28 33.428060 -118.047539 262 4472ft 140kts
26-Dec-17 13:29 33.421864 -118.094091 262 3963ft 145kts
26-Dec-17 13:30 33.415596 -118.140426 263 3960ft 141kts
26-Dec-17 13:31 33.409536 -118.186853 262 3960ft 141kts
26-Dec-17 13:32 33.403303 -118.232591 261 3986ft 138kts
26-Dec-17 13:33 33.397384 -118.278168 260 3987ft 138kts
26-Dec-17 13:34 33.391761 -118.323873 261 3987ft 138kts
26-Dec-17 13:35 33.386316 -118.369472 260 3987ft 138kts
26-Dec-17 13:36 33.380741 -118.414965 262 3987ft 139kts
26-Dec-17 13:37 33.406008 -118.432885 18 3986ft 145kts
26-Dec-17 13:38 33.443324 -118.414886 18 3987ft 145kts
26-Dec-17 13:39 33.480910 -118.413766 326 3969ft 132kts
26-Dec-17 13:40 33.512223 -118.438277 325 3433ft 132kts
26-Dec-17 13:41 33.530704 -118.418287 130 3154ft 138kts
26-Dec-17 13:42 33.497676 -118.403662 190 2911ft 133kts
26-Dec-17 13:43 33.459911 -118.412077 191 2223ft 133kts
26-Dec-17 13:44 33.426819 -118.412569 152 2118ft 110kts
26-Dec-17 13:45 33.408167 -118.410397 232 1514ft 68kts
26-Dec-17 13:46 33.404558 -118.415001 169 1543ft 16kts
26-Dec-17 13:47 33.403350 -118.415296 342 1547ft 0kts
26-Dec-17 13:48 33.403350 -118.415296 342 1547ft 0kts
26-Dec-17 13:49 33.403350 -118.415296 342 1547ft 0kts
26-Dec-17 13:50 33.403350 -118.415296 342 1547ft 0kts
26-Dec-17 13:51 33.403350 -118.415296 342 1547ft 0kts
26-Dec-17 13:52 33.403350 -118.415296 342 1547ft 0kts
26-Dec-17 13:53 33.403350 -118.415296 342 1547ft 0kts
26-Dec-17 13:54 33.403350 -118.415296 342 1547ft 0kts
26-Dec-17 13:55 33.403350 -118.415296 342 1547ft 0kts
26-Dec-17 13:56 33.403350 -118.415296 342 1547ft 0kts
26-Dec-17 13:57 33.403350 -118.415296 342 1547ft 0kts
26-Dec-17 13:58 33.403350 -118.415296 342 1547ft 0kts
26-Dec-17 13:59 33.403350 -118.415296 342 1547ft 0kts
26-Dec-17 14:00 33.403350 -118.415296 342 1547ft 0kts

Navigation Log

Ident Type
1. KAJO Airport
2. PDZ Navaid
3. WISUP Fix
4. PRADO Fix
5. POXKU Fix
6. JOGIT Fix
7. ELB Navaid
8. DANAH Fix
9. SXC Navaid
10. KAVX Airport